Time;durP1;ratioP1;P1;durP2;ratioP2;P2;SDS_P1;SDS_P2;PMS_P1;PMS_P2;Temp;Humidity;BMP_temperature;BMP_pressure;BME280_temperature;BME280_humidity;BME280_pressure;Samples;Min_cycle;Max_cycle;Signal;HPM_P1;HPM_P2
2022/03/20 00:01:30;;;;;;;11.27;4.32;;;6.20;39.20;;;;;;5097080;27;20535;-75
2022/03/20 00:03:57;;;;;;;12.02;4.97;;;6.10;39.30;;;;;;5095821;27;20051;-75
2022/03/20 00:06:24;;;;;;;11.60;4.45;;;5.90;39.60;;;;;;5097361;27;20230;-74
2022/03/20 00:08:52;;;;;;;11.90;4.47;;;6.00;39.60;;;;;;5088581;28;20056;-74
2022/03/20 00:11:19;;;;;;;10.82;4.50;;;6.00;39.60;;;;;;5110673;27;20458;-75
2022/03/20 00:13:46;;;;;;;9.35;3.63;;;6.20;39.60;;;;;;5078137;27;20047;-75
2022/03/20 00:16:13;;;;;;;9.95;4.45;;;6.10;39.80;;;;;;5098758;27;20043;-75
2022/03/20 00:18:41;;;;;;;11.32;4.05;;;5.90;40.00;;;;;;5078980;27;20051;-74
2022/03/20 00:21:10;;;;;;;9.65;3.72;;;5.90;39.90;;;;;;5093364;27;22200;-74
2022/03/20 00:23:38;;;;;;;12.25;4.78;;;6.10;40.00;;;;;;5080114;28;20077;-74
2022/03/20 00:26:06;;;;;;;14.40;5.35;;;6.00;40.00;;;;;;5080031;28;20126;-74
2022/03/20 00:28:33;;;;;;;13.00;5.03;;;6.00;40.10;;;;;;5094061;28;20124;-75
2022/03/20 00:31:00;;;;;;;13.55;5.88;;;5.90;40.10;;;;;;5097410;28;20051;-74
2022/03/20 00:33:27;;;;;;;11.68;4.55;;;5.80;40.30;;;;;;5114168;28;20050;-74
2022/03/20 00:35:54;;;;;;;13.93;5.13;;;5.70;40.40;;;;;;5112162;28;20043;-74
2022/03/20 00:38:22;;;;;;;12.70;4.47;;;5.80;40.50;;;;;;5094573;28;20038;-74
2022/03/20 00:40:49;;;;;;;14.07;4.63;;;5.90;40.40;;;;;;5092722;28;20086;-74
2022/03/20 00:43:16;;;;;;;13.88;5.28;;;5.80;40.60;;;;;;5093411;28;20047;-74
2022/03/20 00:45:44;;;;;;;8.05;4.10;;;5.80;40.70;;;;;;5093123;28;20043;-74
2022/03/20 00:48:11;;;;;;;13.55;5.20;;;5.70;40.70;;;;;;5099872;27;20055;-74
2022/03/20 00:50:38;;;;;;;11.10;4.43;;;5.70;40.70;;;;;;5108215;28;20112;-74
2022/03/20 00:53:05;;;;;;;9.80;4.38;;;5.80;40.90;;;;;;5098967;28;20121;-74
2022/03/20 00:55:32;;;;;;;8.65;3.75;;;5.80;41.00;;;;;;5096075;28;20063;-74
2022/03/20 00:58:00;;;;;;;11.77;4.07;;;5.70;41.10;;;;;;5109721;28;20067;-74
2022/03/20 01:00:27;;;;;;;14.23;4.68;;;5.60;41.70;;;;;;5110237;28;20046;-74
2022/03/20 01:02:54;;;;;;;12.93;4.35;;;5.60;41.60;;;;;;5094925;28;20082;-75
2022/03/20 01:05:22;;;;;;;13.73;4.75;;;5.60;41.60;;;;;;5080569;28;20076;-75
2022/03/20 01:07:49;;;;;;;12.48;5.10;;;5.40;42.00;;;;;;5098239;28;20096;-74
2022/03/20 01:10:16;;;;;;;9.85;4.47;;;5.40;42.40;;;;;;5112522;28;20046;-74
2022/03/20 01:12:43;;;;;;;10.50;4.32;;;5.50;41.90;;;;;;5097863;28;20031;-74
2022/03/20 01:15:12;;;;;;;8.20;3.63;;;5.40;42.20;;;;;;5093648;28;20047;-74
2022/03/20 01:17:39;;;;;;;10.68;4.15;;;5.60;41.80;;;;;;5096403;28;22196;-74
2022/03/20 01:20:08;;;;;;;11.90;5.28;;;5.70;41.60;;;;;;5095945;28;20070;-74
2022/03/20 01:22:37;;;;;;;11.05;3.97;;;5.50;42.00;;;;;;5111182;27;20077;-74
2022/03/20 01:25:06;;;;;;;11.98;4.38;;;5.60;41.90;;;;;;5087812;28;20142;-74
2022/03/20 01:27:34;;;;;;;11.10;4.13;;;5.60;41.90;;;;;;5068946;28;20050;-75
2022/03/20 01:30:02;;;;;;;9.80;4.20;;;5.20;42.70;;;;;;5096871;27;20055;-74
2022/03/20 01:32:30;;;;;;;12.18;4.72;;;5.30;42.80;;;;;;5102580;27;20039;-74
2022/03/20 01:34:57;;;;;;;13.10;4.75;;;5.10;43.10;;;;;;5100747;27;20047;-74
2022/03/20 01:37:25;;;;;;;10.43;4.10;;;5.10;43.30;;;;;;5116624;27;20510;-74
2022/03/20 01:39:52;;;;;;;10.32;4.20;;;5.20;43.40;;;;;;5118394;27;20043;-74
2022/03/20 01:42:21;;;;;;;12.50;3.83;;;5.10;43.50;;;;;;5098370;27;20047;-75
2022/03/20 01:44:49;;;;;;;9.38;4.13;;;4.90;43.70;;;;;;5116372;27;20039;-75
2022/03/20 01:47:16;;;;;;;10.93;4.03;;;4.90;44.10;;;;;;5097443;27;20047;-74
2022/03/20 01:49:43;;;;;;;10.90;4.28;;;4.90;44.10;;;;;;5099616;27;20976;-74
2022/03/20 01:52:10;;;;;;;11.05;4.32;;;5.00;44.10;;;;;;5087726;27;20058;-74
2022/03/20 01:54:39;;;;;;;8.07;3.90;;;4.90;44.30;;;;;;5099319;27;20039;-74
2022/03/20 01:57:07;;;;;;;9.23;4.15;;;4.90;44.40;;;;;;5099267;27;20051;-74
2022/03/20 01:59:34;;;;;;;9.63;4.25;;;4.80;44.80;;;;;;5096736;27;20092;-75
2022/03/20 02:02:03;;;;;;;10.55;3.92;;;4.90;44.80;;;;;;5095936;27;20040;-75
2022/03/20 02:04:33;;;;;;;9.10;3.33;;;4.90;44.60;;;;;;5115508;27;20501;-74
2022/03/20 02:07:02;;;;;;;7.53;3.15;;;4.60;45.40;;;;;;5099353;27;20105;-74
2022/03/20 02:09:31;;;;;;;9.25;4.28;;;4.50;46.00;;;;;;5082854;27;20044;-75
2022/03/20 02:11:59;;;;;;;11.40;4.70;;;4.40;45.70;;;;;;5101856;27;20063;-74
2022/03/20 02:14:27;;;;;;;12.13;4.57;;;4.50;46.00;;;;;;5115057;27;20092;-74
2022/03/20 02:16:55;;;;;;;7.72;3.83;;;4.60;45.60;;;;;;5097459;27;20818;-74
2022/03/20 02:19:24;;;;;;;13.27;4.65;;;4.70;45.40;;;;;;5111385;27;20047;-74
2022/03/20 02:21:51;;;;;;;11.80;4.10;;;4.70;45.40;;;;;;5082174;27;20413;-75
2022/03/20 02:24:46;;;;;;;8.75;3.67;;;4.70;45.80;;;;;;5103182;27;20047;-74
2022/03/20 02:27:17;;;;;;;9.73;3.80;;;4.50;46.00;;;;;;5093844;27;20059;-74
2022/03/20 02:29:49;;;;;;;9.07;3.78;;;4.30;46.50;;;;;;5083240;27;20047;-74
2022/03/20 02:32:18;;;;;;;11.95;4.68;;;4.30;46.60;;;;;;5082897;27;20051;-74
2022/03/20 02:34:50;;;;;;;11.77;4.38;;;4.50;46.40;;;;;;5082695;27;20051;-74
2022/03/20 02:37:21;;;;;;;11.00;4.40;;;4.20;46.70;;;;;;5098228;27;20051;-74
2022/03/20 02:39:53;;;;;;;16.38;5.00;;;4.20;47.20;;;;;;5095625;27;20046;-74
2022/03/20 02:42:22;;;;;;;8.93;4.18;;;4.20;47.10;;;;;;5074321;28;20060;-74
2022/03/20 02:44:49;;;;;;;11.27;4.55;;;4.30;46.70;;;;;;5094117;28;20848;-74
2022/03/20 02:47:20;;;;;;;10.43;4.00;;;4.20;46.80;;;;;;5096622;28;20036;-74
2022/03/20 02:50:00;;;;;;;12.27;5.10;;;4.10;47.10;;;;;;5093585;28;20043;-74
2022/03/20 02:52:31;;;;;;;11.13;4.13;;;4.10;47.40;;;;;;5093936;28;20036;-74
2022/03/20 02:55:03;;;;;;;15.48;4.70;;;4.00;47.60;;;;;;5096004;28;20079;-74
2022/03/20 02:57:31;;;;;;;11.73;3.90;;;4.10;47.50;;;;;;5110623;27;20052;-74
2022/03/20 03:00:03;;;;;;;12.13;4.63;;;4.10;47.40;;;;;;5095568;28;20052;-74
2022/03/20 03:02:35;;;;;;;12.98;4.88;;;3.80;48.00;;;;;;5099181;27;20058;-74
2022/03/20 03:05:03;;;;;;;11.15;4.95;;;3.70;48.40;;;;;;5094575;27;22391;-74
2022/03/20 03:07:31;;;;;;;11.52;3.92;;;3.40;48.90;;;;;;5096438;28;20035;-74
2022/03/20 03:12:44;;;;;;;7.68;3.67;;;3.80;48.50;;;;;;5092689;28;20051;-74
2022/03/20 03:15:20;;;;;;;16.77;4.82;;;3.70;48.50;;;;;;5091768;28;20055;-74
2022/03/20 03:17:49;;;;;;;14.82;5.13;;;3.60;49.10;;;;;;5092879;28;20044;-74
2022/03/20 03:20:19;;;;;;;12.88;4.95;;;3.70;48.90;;;;;;5093861;28;20039;-74
2022/03/20 03:22:47;;;;;;;12.02;4.75;;;3.90;48.30;;;;;;5095485;28;20170;-74
2022/03/20 03:25:14;;;;;;;12.98;4.32;;;4.00;48.10;;;;;;5093467;28;20052;-74
2022/03/20 03:27:43;;;;;;;13.85;5.50;;;3.60;48.90;;;;;;5093367;28;20047;-74
2022/03/20 03:30:15;;;;;;;12.93;5.40;;;3.80;49.00;;;;;;5097449;28;20537;-74
2022/03/20 03:32:43;;;;;;;12.35;4.38;;;3.90;48.60;;;;;;5093454;28;20040;-74
2022/03/20 03:37:58;;;;;;;11.57;4.68;;;4.10;48.30;;;;;;5094424;28;20093;-74
2022/03/20 03:40:26;;;;;;;14.75;5.07;;;3.80;48.70;;;;;;5109214;27;20032;-74
2022/03/20 03:42:53;;;;;;;12.00;5.60;;;3.90;48.80;;;;;;5113217;27;20058;-74
2022/03/20 03:45:23;;;;;;;11.85;4.57;;;3.60;50.10;;;;;;5080038;27;20059;-74
2022/03/20 03:47:51;;;;;;;12.30;4.22;;;3.60;49.60;;;;;;5111522;27;20051;-74
2022/03/20 03:50:19;;;;;;;11.25;4.65;;;3.50;49.90;;;;;;5096903;27;20045;-75
2022/03/20 03:52:47;;;;;;;12.50;4.78;;;3.50;49.90;;;;;;5111762;27;20040;-74
2022/03/20 03:55:15;;;;;;;9.52;4.80;;;3.60;49.90;;;;;;5096059;27;20108;-74
2022/03/20 03:57:43;;;;;;;12.48;4.88;;;3.60;49.80;;;;;;5097931;27;20112;-74
2022/03/20 04:00:11;;;;;;;11.23;5.45;;;3.50;50.10;;;;;;5098439;27;20071;-74
2022/03/20 04:02:45;;;;;;;12.80;5.25;;;3.60;49.80;;;;;;5113132;27;20050;-74
2022/03/20 04:05:15;;;;;;;17.80;5.88;;;3.50;50.40;;;;;;5079804;27;20113;-74
2022/03/20 04:07:42;;;;;;;11.50;5.38;;;3.70;49.80;;;;;;5096191;27;20051;-74
2022/03/20 04:10:09;;;;;;;12.85;4.97;;;3.50;50.20;;;;;;5116609;27;20046;-74
2022/03/20 04:12:37;;;;;;;13.50;5.60;;;3.50;50.60;;;;;;5094993;27;20044;-74
2022/03/20 04:15:05;;;;;;;15.18;5.80;;;3.40;50.70;;;;;;5096334;27;20049;-74
2022/03/20 04:17:32;;;;;;;15.85;6.53;;;3.30;51.10;;;;;;5097178;28;20067;-74
2022/03/20 04:20:01;;;;;;;12.65;5.65;;;3.30;51.20;;;;;;5079445;27;20099;-74
2022/03/20 04:22:28;;;;;;;14.75;5.75;;;3.40;51.10;;;;;;5097007;28;20186;-74
2022/03/20 04:24:56;;;;;;;14.25;5.00;;;3.50;50.90;;;;;;5095247;28;20043;-74
2022/03/20 04:27:25;;;;;;;14.70;5.57;;;3.30;51.40;;;;;;5096276;28;20044;-74
2022/03/20 04:29:53;;;;;;;11.20;5.80;;;3.50;51.10;;;;;;5097632;28;20047;-74
2022/03/20 04:32:21;;;;;;;12.55;4.82;;;3.60;51.00;;;;;;5113140;28;20118;-74
2022/03/20 04:34:48;;;;;;;15.63;5.30;;;3.50;51.10;;;;;;5099044;28;20087;-74
2022/03/20 04:37:16;;;;;;;12.27;5.00;;;3.60;51.10;;;;;;5113482;28;20397;-74
2022/03/20 04:39:44;;;;;;;10.05;4.53;;;3.60;51.00;;;;;;5094739;28;20047;-74
2022/03/20 04:42:13;;;;;;;12.60;4.97;;;3.70;50.50;;;;;;5092250;28;20150;-74
2022/03/20 04:44:40;;;;;;;13.82;4.75;;;3.90;50.30;;;;;;5079039;28;20109;-74
2022/03/20 04:58:29;;;;;;;12.30;5.13;;;3.80;50.30;;;;;;5094929;28;20048;-74
2022/03/20 04:58:31;;;;;;;13.90;5.03;;;3.80;50.70;;;;;;5092115;28;20515;-74
2022/03/20 05:00:58;;;;;;;13.02;5.40;;;3.40;51.80;;;;;;5093231;28;20812;-74
2022/03/20 05:03:27;;;;;;;14.02;5.07;;;3.30;52.50;;;;;;5054549;28;20052;-74
2022/03/20 05:05:54;;;;;;;14.98;5.57;;;3.50;52.10;;;;;;5062451;28;20117;-74
2022/03/20 05:08:21;;;;;;;26.58;6.95;;;3.70;51.60;;;;;;5077660;28;20143;-75
2022/03/20 05:13:33;;;;;;;17.42;6.22;;;3.60;51.30;;;;;;5074482;28;20052;-74
2022/03/20 05:16:00;;;;;;;14.93;6.45;;;3.50;52.00;;;;;;5058283;28;20068;-74
2022/03/20 05:18:32;;;;;;;19.05;6.32;;;3.40;52.20;;;;;;5073081;28;20060;-74
2022/03/20 05:20:59;;;;;;;18.42;5.90;;;3.50;52.50;;;;;;5075984;28;20040;-74
2022/03/20 05:23:26;;;;;;;22.48;7.80;;;3.40;52.70;;;;;;5072998;28;20071;-74
2022/03/20 05:25:53;;;;;;;101.55;25.67;;;3.50;52.10;;;;;;5073488;28;20048;-74
2022/03/20 05:28:21;;;;;;;174.60;37.53;;;3.60;52.00;;;;;;5045683;28;20072;-75
2022/03/20 05:30:48;;;;;;;291.95;57.90;;;3.50;52.10;;;;;;5075564;28;20088;-74
2022/03/20 05:33:16;;;;;;;297.15;61.30;;;3.60;51.90;;;;;;5043474;28;21051;-75
2022/03/20 05:35:49;;;;;;;287.13;60.85;;;3.60;52.10;;;;;;5096772;28;20043;-74
2022/03/20 05:38:16;;;;;;;236.15;47.83;;;3.50;52.00;;;;;;5098191;28;20038;-73
2022/03/20 05:40:44;;;;;;;208.75;48.28;;;3.60;52.00;;;;;;5097243;27;20047;-73
2022/03/20 05:43:11;;;;;;;123.55;33.45;;;3.60;52.10;;;;;;5115922;27;20039;-75
2022/03/20 05:45:44;;;;;;;121.47;32.72;;;3.40;52.90;;;;;;5098209;27;20035;-73
2022/03/20 05:48:11;;;;;;;;;;;3.40;53.30;;;;;;5079734;27;20141;-73
2022/03/20 05:50:43;;;;;;;41.70;15.38;;;3.40;53.30;;;;;;5098241;27;20019;-73
2022/03/20 05:53:10;;;;;;;39.47;14.52;;;3.60;53.20;;;;;;5096385;27;20565;-73
2022/03/20 05:58:25;;;;;;;27.23;10.40;;;3.70;52.80;;;;;;5116170;27;20064;-75
2022/03/20 06:00:53;;;;;;;21.83;10.13;;;3.70;53.10;;;;;;5098473;27;20056;-73
2022/03/20 06:03:20;;;;;;;25.05;8.60;;;3.90;52.90;;;;;;5116455;27;20063;-73
2022/03/20 06:05:48;;;;;;;18.00;8.80;;;3.70;53.20;;;;;;5098272;27;20076;-74
2022/03/20 06:08:15;;;;;;;16.35;7.20;;;3.80;52.90;;;;;;5099692;27;20128;-73
2022/03/20 06:10:43;;;;;;;16.10;6.30;;;3.90;52.90;;;;;;5096639;27;20100;-73
2022/03/20 06:13:10;;;;;;;18.05;7.05;;;3.90;52.60;;;;;;5103032;27;20039;-73
2022/03/20 06:15:38;;;;;;;16.83;6.35;;;4.00;52.40;;;;;;5104636;27;20122;-73
2022/03/20 06:18:05;;;;;;;19.08;6.70;;;4.00;52.50;;;;;;5099113;27;20039;-74
2022/03/20 06:20:35;;;;;;;14.00;5.65;;;4.20;52.20;;;;;;5098151;27;20081;-74
2022/03/20 06:23:02;;;;;;;14.40;5.80;;;4.30;52.10;;;;;;5082440;27;20070;-73
2022/03/20 06:25:29;;;;;;;13.95;5.60;;;4.40;52.00;;;;;;5099665;27;20682;-74
2022/03/20 06:27:59;;;;;;;15.20;5.35;;;4.60;51.70;;;;;;5101247;27;20493;-74
2022/03/20 06:30:27;;;;;;;20.25;5.57;;;4.50;51.90;;;;;;5084646;27;20050;-74
2022/03/20 06:32:55;;;;;;;13.35;5.50;;;4.60;51.40;;;;;;5103044;27;20058;-74
2022/03/20 06:35:23;;;;;;;13.80;5.32;;;4.70;51.40;;;;;;5074977;28;20039;-74
2022/03/20 06:37:52;;;;;;;15.25;5.70;;;5.00;51.00;;;;;;5072140;28;20060;-74
2022/03/20 06:40:20;;;;;;;14.35;4.85;;;5.10;50.90;;;;;;5056005;28;20040;-74
2022/03/20 06:42:49;;;;;;;13.35;5.53;;;5.10;50.30;;;;;;5058643;28;20056;-74
2022/03/20 06:45:18;;;;;;;13.27;5.57;;;5.40;49.60;;;;;;5057234;28;20047;-74
2022/03/20 06:47:45;;;;;;;16.35;6.13;;;5.40;49.30;;;;;;5055149;28;22321;-74
2022/03/20 06:50:13;;;;;;;14.48;5.05;;;5.60;49.20;;;;;;5071188;28;20044;-74
2022/03/20 06:52:41;;;;;;;14.10;5.22;;;5.70;48.80;;;;;;5055319;28;20040;-74
2022/03/20 06:55:12;;;;;;;12.07;5.65;;;5.80;48.80;;;;;;5058462;28;20052;-74
2022/03/20 06:57:41;;;;;;;11.38;5.82;;;6.00;48.40;;;;;;5034108;28;20044;-74
2022/03/20 07:00:13;;;;;;;11.73;5.73;;;6.10;48.20;;;;;;5050385;28;20079;-74
2022/03/20 07:02:55;;;;;;;11.90;5.35;;;6.10;47.80;;;;;;5019236;28;20296;-74
2022/03/20 07:05:30;;;;;;;21.80;8.50;;;6.20;48.00;;;;;;5034127;28;20060;-74
2022/03/20 07:07:57;;;;;;;21.40;10.05;;;6.30;47.80;;;;;;5049338;28;22646;-74
2022/03/20 07:10:25;;;;;;;10.75;5.00;;;6.40;47.40;;;;;;5004722;28;20182;-74
2022/03/20 07:13:48;;;;;;;11.50;4.78;;;6.30;46.90;;;;;;5044538;27;20058;-74
2022/03/20 07:15:45;;;;;;;11.85;4.35;;;6.20;46.20;;;;;;5080844;27;20502;-74
2022/03/20 07:18:15;;;;;;;10.95;5.18;;;6.30;46.80;;;;;;5072512;27;20047;-74
2022/03/20 07:20:44;;;;;;;10.38;4.10;;;6.30;46.60;;;;;;5079079;27;20173;-74
2022/03/20 07:23:12;;;;;;;11.68;4.05;;;6.30;47.00;;;;;;5081173;27;20058;-74
2022/03/20 07:31:14;;;;;;;9.05;4.07;;;6.40;45.80;;;;;;5064823;27;20054;-74
2022/03/20 07:33:42;;;;;;;11.10;4.22;;;6.40;45.20;;;;;;5066483;27;20058;-74
2022/03/20 07:36:10;;;;;;;8.73;4.38;;;6.50;45.20;;;;;;5068784;27;20043;-74
2022/03/20 07:38:37;;;;;;;7.32;3.60;;;6.70;44.70;;;;;;5063985;27;20051;-74
2022/03/20 07:41:04;;;;;;;10.52;4.05;;;6.70;44.50;;;;;;5082123;27;22056;-74
2022/03/20 07:43:31;;;;;;;9.10;3.92;;;6.70;44.40;;;;;;5056678;27;20052;-74
2022/03/20 07:45:58;;;;;;;9.85;3.55;;;6.60;44.50;;;;;;5064503;27;20055;-74
2022/03/20 07:48:26;;;;;;;8.20;2.78;;;6.50;43.80;;;;;;5050607;27;20059;-74
2022/03/20 07:50:53;;;;;;;6.70;3.10;;;6.60;44.20;;;;;;5068548;27;20126;-74
2022/03/20 07:53:21;;;;;;;7.78;3.28;;;6.50;43.90;;;;;;5054603;27;22578;-74
2022/03/20 07:55:48;;;;;;;8.73;3.97;;;6.50;43.50;;;;;;5066995;27;20039;-74
2022/03/20 07:58:19;;;;;;;6.93;3.30;;;6.70;43.10;;;;;;5084959;27;20050;-74
2022/03/20 08:00:50;;;;;;;8.23;3.30;;;6.80;42.90;;;;;;5063710;27;20177;-74
2022/03/20 08:03:18;;;;;;;5.80;3.13;;;6.80;42.80;;;;;;5072570;27;20116;-74
2022/03/20 08:05:46;;;;;;;5.82;2.47;;;6.80;42.60;;;;;;5082004;27;20050;-74
2022/03/20 08:08:16;;;;;;;8.02;3.50;;;6.80;42.50;;;;;;5047961;27;20047;-74
2022/03/20 08:10:43;;;;;;;5.95;2.95;;;6.90;42.10;;;;;;5062432;27;20062;-74
2022/03/20 08:13:11;;;;;;;6.55;3.10;;;7.10;42.50;;;;;;5079685;28;20048;-74
2022/03/20 08:15:43;;;;;;;7.25;3.60;;;7.40;41.70;;;;;;5081345;27;20039;-74
2022/03/20 08:18:10;;;;;;;7.93;3.35;;;7.50;41.70;;;;;;5047809;27;20062;-74
2022/03/20 08:20:39;;;;;;;7.63;3.38;;;7.40;42.00;;;;;;5081214;28;20139;-74
2022/03/20 08:23:06;;;;;;;9.27;3.28;;;7.40;41.80;;;;;;5066060;28;20059;-74
2022/03/20 08:25:33;;;;;;;6.70;3.25;;;7.60;41.50;;;;;;5081270;27;20055;-74
2022/03/20 08:28:00;;;;;;;7.88;3.38;;;7.60;41.70;;;;;;5081911;28;20763;-74
2022/03/20 08:30:28;;;;;;;9.43;3.63;;;7.60;41.30;;;;;;5070952;28;20062;-74
2022/03/20 08:32:55;;;;;;;7.22;2.75;;;7.60;41.40;;;;;;5056947;28;20054;-74
2022/03/20 08:35:22;;;;;;;6.07;2.35;;;7.60;40.90;;;;;;5065801;28;20490;-74
2022/03/20 08:37:53;;;;;;;8.95;3.38;;;7.60;40.60;;;;;;5048965;27;20835;-74
2022/03/20 08:40:22;;;;;;;7.90;3.40;;;7.70;40.60;;;;;;5052774;27;20051;-74
2022/03/20 08:42:55;;;;;;;6.32;2.80;;;7.60;40.70;;;;;;5070297;27;22369;-74
2022/03/20 08:45:24;;;;;;;6.10;2.67;;;7.70;40.80;;;;;;5067922;27;20047;-74
2022/03/20 08:47:51;;;;;;;6.18;2.67;;;7.70;40.50;;;;;;5052282;27;20299;-74
2022/03/20 08:50:19;;;;;;;9.60;3.00;;;7.90;40.70;;;;;;5065756;27;20402;-74
2022/03/20 08:52:47;;;;;;;4.80;2.72;;;8.10;40.30;;;;;;5087954;27;22576;-74
2022/03/20 08:55:15;;;;;;;7.13;3.42;;;8.20;40.40;;;;;;5068966;27;20056;-74
2022/03/20 08:57:46;;;;;;;8.07;3.35;;;8.40;39.70;;;;;;5085435;27;20188;-74
2022/03/20 09:00:16;;;;;;;7.50;3.58;;;8.50;39.60;;;;;;5084096;27;20173;-74
2022/03/20 09:02:45;;;;;;;8.70;2.95;;;8.70;39.50;;;;;;5088320;27;20125;-74
2022/03/20 09:05:13;;;;;;;9.32;3.50;;;8.90;39.40;;;;;;5086081;27;20043;-74
2022/03/20 09:07:42;;;;;;;6.60;4.32;;;9.00;38.80;;;;;;5084546;27;20043;-74
2022/03/20 09:10:10;;;;;;;7.95;3.67;;;9.20;39.20;;;;;;5066437;27;20145;-74
2022/03/20 09:12:38;;;;;;;11.15;4.10;;;9.20;39.00;;;;;;5065936;27;20043;-74
2022/03/20 09:15:12;;;;;;;8.27;3.40;;;9.10;38.70;;;;;;5086518;27;20039;-74
2022/03/20 09:20:33;;;;;;;6.80;3.73;;;9.40;39.00;;;;;;5084900;27;20698;-74
2022/03/20 09:23:00;;;;;;;7.85;3.75;;;9.40;38.10;;;;;;5048171;27;20071;-75
2022/03/20 09:25:28;;;;;;;8.57;2.85;;;9.30;38.40;;;;;;5075172;27;20116;-73
2022/03/20 09:28:02;;;;;;;7.90;3.90;;;9.40;38.50;;;;;;5069944;27;20048;-73
2022/03/20 09:30:30;;;;;;;10.52;3.38;;;9.20;38.20;;;;;;5080745;27;20105;-73
2022/03/20 09:33:01;;;;;;;10.65;3.95;;;8.90;38.50;;;;;;5059236;27;20043;-72
2022/03/20 09:35:28;;;;;;;7.07;3.75;;;8.80;39.30;;;;;;5079616;27;20893;-72
2022/03/20 09:37:55;;;;;;;8.88;3.17;;;9.00;39.50;;;;;;5080463;27;20047;-73
2022/03/20 09:40:24;;;;;;;7.88;3.55;;;9.40;39.20;;;;;;5063633;27;20074;-73
2022/03/20 09:42:52;;;;;;;7.15;3.80;;;9.60;39.70;;;;;;5053574;27;20052;-73
2022/03/20 09:45:20;;;;;;;7.50;3.70;;;9.60;38.30;;;;;;5063273;27;20051;-73
2022/03/20 09:47:48;;;;;;;8.60;3.85;;;9.70;37.90;;;;;;5077792;27;20054;-73
2022/03/20 09:50:15;;;;;;;9.38;4.63;;;9.30;38.40;;;;;;5064961;27;20795;-73
2022/03/20 09:52:44;;;;;;;9.65;4.07;;;9.20;38.30;;;;;;5076375;27;20091;-73
2022/03/20 09:55:12;;;;;;;7.93;3.60;;;9.40;38.90;;;;;;5078435;27;20046;-73
2022/03/20 09:57:42;;;;;;;8.98;3.90;;;9.50;38.40;;;;;;5078800;27;20166;-74
2022/03/20 10:00:15;;;;;;;11.52;4.55;;;9.80;38.40;;;;;;5067313;27;20045;-74
2022/03/20 10:02:42;;;;;;;8.60;3.92;;;9.90;37.90;;;;;;5058492;27;20055;-72
2022/03/20 10:05:10;;;;;;;8.60;3.63;;;10.10;37.90;;;;;;5054097;27;20047;-72
2022/03/20 10:07:42;;;;;;;7.43;3.42;;;10.30;38.40;;;;;;5056821;27;20172;-72
2022/03/20 10:10:15;;;;;;;8.02;3.85;;;10.40;37.60;;;;;;5052897;27;20090;-72
2022/03/20 10:12:57;;;;;;;10.80;3.80;;;10.40;37.70;;;;;;5043197;27;20063;-72
2022/03/20 10:15:37;;;;;;;9.35;4.07;;;10.60;37.40;;;;;;5052570;27;20711;-73
2022/03/20 10:18:20;;;;;;;8.75;3.85;;;10.40;36.50;;;;;;5058402;27;20046;-72
2022/03/20 10:20:51;;;;;;;9.20;4.05;;;10.40;37.30;;;;;;5078603;27;20039;-73
2022/03/20 10:23:36;;;;;;;8.38;3.95;;;10.30;37.30;;;;;;5082403;27;20130;-74
2022/03/20 10:26:06;;;;;;;11.25;4.47;;;10.60;37.50;;;;;;5070828;27;20058;-74
2022/03/20 10:28:45;;;;;;;9.93;4.22;;;10.60;37.30;;;;;;5066335;27;20044;-74
2022/03/20 10:31:18;;;;;;;8.05;3.58;;;11.00;37.70;;;;;;5083440;27;20060;-74
2022/03/20 10:34:03;;;;;;;6.80;3.63;;;11.10;37.10;;;;;;5064973;27;20047;-74
2022/03/20 10:36:33;;;;;;;8.38;3.58;;;11.30;36.20;;;;;;5048986;27;20071;-74
2022/03/20 10:39:00;;;;;;;8.98;3.92;;;11.40;35.60;;;;;;5068227;27;22372;-75
2022/03/20 10:41:38;;;;;;;11.07;4.13;;;11.70;36.60;;;;;;5061529;27;20059;-74
2022/03/20 10:44:31;;;;;;;9.13;3.60;;;11.90;36.30;;;;;;5063949;27;20055;-73
2022/03/20 10:47:12;;;;;;;9.30;3.95;;;11.90;35.60;;;;;;5073294;27;20051;-73
2022/03/20 10:49:42;;;;;;;7.43;4.00;;;12.00;35.60;;;;;;5059538;27;20568;-75
2022/03/20 10:52:11;;;;;;;7.88;3.95;;;12.20;35.50;;;;;;5077642;27;20043;-75
2022/03/20 10:54:52;;;;;;;8.25;3.75;;;12.40;34.90;;;;;;5081956;27;20181;-74
2022/03/20 10:57:22;;;;;;;9.65;3.45;;;12.30;34.00;;;;;;5043736;27;20869;-73
2022/03/20 11:00:01;;;;;;;8.43;3.95;;;12.20;34.50;;;;;;5070951;27;20059;-74
2022/03/20 11:02:28;;;;;;;6.57;3.08;;;12.20;35.50;;;;;;5052800;27;21057;-77
2022/03/20 11:04:55;;;;;;;7.70;3.85;;;12.20;35.30;;;;;;5059953;27;20513;-77
2022/03/20 11:07:23;;;;;;;7.72;3.58;;;12.20;35.40;;;;;;5067033;27;20039;-77
2022/03/20 11:09:54;;;;;;;6.88;3.60;;;12.20;34.70;;;;;;5068232;27;20170;-77
2022/03/20 11:12:34;;;;;;;10.25;4.80;;;12.20;35.40;;;;;;5084636;27;20117;-77
2022/03/20 11:15:06;;;;;;;6.32;3.03;;;12.40;34.30;;;;;;5070245;27;20070;-77
2022/03/20 11:17:43;;;;;;;6.65;2.92;;;12.10;34.60;;;;;;5051463;27;20097;-77
2022/03/20 11:20:13;;;;;;;6.82;2.83;;;12.10;33.20;;;;;;5070797;27;20937;-77
2022/03/20 11:22:50;;;;;;;6.47;3.03;;;12.40;34.00;;;;;;5070367;27;20047;-77
2022/03/20 11:25:24;;;;;;;6.75;2.72;;;12.60;34.50;;;;;;5065769;27;20064;-77
2022/03/20 11:28:01;;;;;;;8.90;3.67;;;12.80;33.70;;;;;;5069200;27;20051;-78
2022/03/20 11:30:33;;;;;;;7.40;3.35;;;12.90;33.40;;;;;;5048240;27;20058;-77
2022/03/20 11:33:01;;;;;;;7.90;4.60;;;12.70;33.50;;;;;;5065193;27;20055;-77
2022/03/20 11:35:31;;;;;;;6.90;3.47;;;12.60;33.10;;;;;;5051893;27;20165;-74
2022/03/20 11:38:24;;;;;;;7.18;3.35;;;12.50;34.60;;;;;;5080302;27;20047;-74
2022/03/20 11:41:05;;;;;;;7.05;3.10;;;12.60;34.00;;;;;;5077394;27;20043;-74
2022/03/20 11:43:35;;;;;;;6.95;3.53;;;12.60;33.40;;;;;;5061701;27;20179;-74
2022/03/20 11:46:30;;;;;;;4.53;3.10;;;12.60;33.80;;;;;;5078910;27;20055;-74
2022/03/20 11:49:17;;;;;;;7.40;3.45;;;12.60;33.60;;;;;;5050524;27;20509;-74
2022/03/20 11:52:07;;;;;;;9.23;3.35;;;12.60;33.60;;;;;;5082340;27;22336;-74
2022/03/20 11:54:40;;;;;;;5.25;3.22;;;12.50;33.60;;;;;;5068275;27;20521;-74
2022/03/20 11:57:26;;;;;;;7.18;2.97;;;12.60;34.00;;;;;;5047458;27;20035;-71
2022/03/20 11:59:55;;;;;;;9.07;3.60;;;12.60;33.30;;;;;;5068190;27;20055;-72
2022/03/20 12:03:07;;;;;;;6.15;3.05;;;12.60;33.10;;;;;;5037961;27;20047;-72
2022/03/20 12:05:48;;;;;;;5.85;2.80;;;12.40;32.90;;;;;;5067878;27;20052;-74
2022/03/20 12:08:28;;;;;;;8.77;3.45;;;12.40;33.50;;;;;;5064582;27;20096;-74
2022/03/20 12:10:58;;;;;;;8.25;3.25;;;12.30;33.30;;;;;;5046215;28;22305;-74
2022/03/20 12:13:38;;;;;;;8.88;3.03;;;12.30;33.30;;;;;;5060624;28;20043;-74
2022/03/20 12:16:06;;;;;;;7.20;3.08;;;12.20;33.00;;;;;;5078137;27;20188;-74
2022/03/20 12:19:06;;;;;;;6.35;3.10;;;12.10;33.10;;;;;;5077547;27;20071;-73
2022/03/20 12:22:03;;;;;;;7.75;3.53;;;12.20;32.90;;;;;;5050086;28;20059;-73
2022/03/20 12:24:40;;;;;;;4.38;2.58;;;12.10;33.30;;;;;;5041172;28;20059;-74
2022/03/20 12:27:23;;;;;;;5.82;3.17;;;12.10;32.70;;;;;;5044102;28;20255;-73
2022/03/20 12:30:04;;;;;;;5.30;2.92;;;12.10;33.20;;;;;;5066443;28;20059;-73
2022/03/20 12:32:59;;;;;;;7.57;3.38;;;12.10;33.10;;;;;;5067385;28;20092;-72
2022/03/20 12:35:47;;;;;;;5.95;2.83;;;12.20;33.10;;;;;;5049396;28;20067;-71
2022/03/20 12:38:40;;;;;;;6.55;2.88;;;12.00;33.50;;;;;;5065899;28;20059;-71
2022/03/20 12:41:13;;;;;;;7.40;3.05;;;12.20;32.70;;;;;;5034029;28;20148;-71
2022/03/20 12:43:43;;;;;;;7.28;4.43;;;12.20;32.70;;;;;;5044467;28;20055;-72
2022/03/20 12:46:11;;;;;;;7.75;3.33;;;12.20;32.50;;;;;;5044167;28;20044;-73
2022/03/20 12:48:51;;;;;;;5.88;3.00;;;12.20;32.70;;;;;;5063558;28;20056;-74
2022/03/20 12:51:31;;;;;;;5.13;2.20;;;12.20;32.90;;;;;;5037246;28;20130;-74
2022/03/20 12:54:05;;;;;;;5.97;2.85;;;12.30;32.30;;;;;;5047963;28;20050;-73
2022/03/20 12:56:32;;;;;;;5.88;3.13;;;12.40;32.50;;;;;;5041221;28;20048;-72
2022/03/20 12:59:00;;;;;;;10.63;5.05;;;12.50;32.40;;;;;;5056495;28;20047;-73
2022/03/20 13:01:39;;;;;;;7.90;3.05;;;12.30;32.70;;;;;;5070851;28;20055;-72
2022/03/20 13:04:14;;;;;;;9.45;3.38;;;12.30;32.50;;;;;;5069982;28;20070;-73
2022/03/20 13:06:42;;;;;;;8.07;3.13;;;12.30;33.00;;;;;;5068907;28;20043;-73
2022/03/20 13:09:14;;;;;;;11.25;4.90;;;12.30;33.00;;;;;;5071688;28;20047;-73
2022/03/20 13:11:48;;;;;;;10.48;4.80;;;12.40;31.70;;;;;;5032196;28;20076;-73
2022/03/20 13:14:15;;;;;;;6.72;3.60;;;12.40;31.20;;;;;;5074544;27;20039;-75
2022/03/20 13:16:53;;;;;;;7.93;3.47;;;12.50;31.20;;;;;;5060949;28;20047;-75
2022/03/20 13:19:35;;;;;;;5.13;2.42;;;12.50;31.40;;;;;;5077878;28;20043;-74
2022/03/20 13:22:09;;;;;;;6.45;3.08;;;12.60;31.50;;;;;;5057335;28;20627;-73
2022/03/20 13:24:39;;;;;;;6.85;4.40;;;12.60;31.60;;;;;;5068281;27;20054;-73
2022/03/20 13:27:08;;;;;;;8.40;3.05;;;12.50;31.70;;;;;;5073244;27;20141;-73
2022/03/20 13:29:36;;;;;;;6.38;2.13;;;12.70;31.50;;;;;;5075770;27;20059;-75
2022/03/20 13:32:08;;;;;;;5.95;2.92;;;12.80;31.40;;;;;;5076235;27;20212;-73
2022/03/20 13:34:46;;;;;;;5.95;2.50;;;12.70;31.30;;;;;;5053877;27;20063;-73